Queen Of Cowichan — CZ4990 — position and weather

sailwx.info

Track history (hours):
 
Tides and Currents Weather Stations Pressure Air Temp Water Temp Dewpoint Dewpoint Depression Visibility Wind Speed Wind Dir Waves Ship Positions

Queen Of Cowichan

Last reported at 2016-Aug-30 03:32 UTC. Time now 2016-Aug-30 09:10 UTC.
Position N 49°12' W 123°57'.

Length 139 m; draft 5.5 m.

Type: Passenger vessel. MMSI: 316001251.

Date/timePositionNaut miles runAvg speedWind from/ knotsBaromVisibWave heightAir tempDewpointWater temp
2016-Aug-30 03:32N 49°12' W 123°57'1919.2
2016-Aug-30 02:33N 49°18' W 123°30'10 9.8
2016-Aug-30 01:33N 49°23' W 123°16'1515.3
2016-Aug-30 00:33N 49°16' W 123°37'1411.3
2016-Aug-29 23:20N 49°12' W 123°57'1113.4
2016-Aug-29 22:33N 49°16' W 123°43'1918.6
2016-Aug-29 21:33N 49°23' W 123°16'4 3.6
2016-Aug-29 20:34N 49°20' W 123°20'2020.1
2016-Aug-29 19:33N 49°14' W 123°50'6 5.5
2016-Aug-29 18:33N 49°12' W 123°57'1818.2
2016-Aug-29 17:34N 49°18' W 123°31'1110.8
2016-Aug-29 16:33N 49°23' W 123°16'1313.4
2016-Aug-29 15:34N 49°17' W 123°35'1615.2
2016-Aug-29 14:32N 49°12' W 123°57'0 0.0
2016-Aug-29 13:27N 49°12' W 123°57'0 0.0
2016-Aug-29 12:30N 49°12' W 123°57'0 0.0
2016-Aug-29 11:06N 49°12' W 123°57'0 0.0
2016-Aug-29 10:30N 49°12' W 123°57'0 0.0
2016-Aug-29 09:30N 49°12' W 123°57'0 0.0
2016-Aug-29 08:30N 49°12' W 123°57'5 5.2
2016-Aug-29 07:34N 49°14' W 123°51'2020.1
2016-Aug-29 06:34N 49°20' W 123°21'0 0.2
2016-Aug-29 05:33N 49°20' W 123°21'2120.6
2016-Aug-29 04:33N 49°14' W 123°51'4 4.1
2016-Aug-29 03:34N 49°12' W 123°57'2019.9
2016-Aug-29 02:33N 49°18' W 123°28'9 8.7
2016-Aug-29 01:34N 49°23' W 123°16'1615.9
2016-Aug-29 00:33N 49°16' W 123°39'1312.9
2016-Aug-28 23:33N 49°12' W 123°57'1313.0
2016-Aug-28 22:34N 49°17' W 123°40'1616.1
2016-Aug-28 21:34N 49°23' W 123°16'5 5.1
2016-Aug-28 20:34N 49°19' W 123°22'2120.5
2016-Aug-28 19:33N 49°14' W 123°52'4 3.6
2016-Aug-28 18:28N 49°12' W 123°57'0 0.0
2016-Aug-28 15:31N 49°12' W 123°57'0 0.0
2016-Aug-28 13:31N 49°12' W 123°57'0 0.0
2016-Aug-28 12:19N 49°12' W 123°57'0 0.0
2016-Aug-28 11:31N 49°12' W 123°57'0 0.0
2016-Aug-28 10:32N 49°12' W 123°57'0 0.0
2016-Aug-28 09:08N 49°12' W 123°57'0 0.0
2016-Aug-28 06:25N 49°12' W 123°57'0 0.0
2016-Aug-28 02:28N 49°12' W 123°57'0 0.0
2016-Aug-28 00:31N 49°12' W 123°57'0 0.0
2016-Aug-27 23:17N 49°12' W 123°57'1317.5
2016-Aug-27 22:34N 49°19' W 123°41'1716.8
2016-Aug-27 21:34N 49°23' W 123°16'4 3.8
2016-Aug-27 20:34N 49°20' W 123°20'2020.4
2016-Aug-27 19:34N 49°14' W 123°50'5 5.2
2016-Aug-27 18:34N 49°12' W 123°57'1919.5
2016-Aug-27 17:34N 49°18' W 123°29'9 9.4
2016-Aug-27 16:33N 49°23' W 123°16'1514.6
2016-Aug-27 15:34N 49°16' W 123°36'1413.7
2016-Aug-27 14:31N 49°12' W 123°57'0 0.0
2016-Aug-27 13:18N 49°12' W 123°57'0 0.0
2016-Aug-27 12:33N 49°12' W 123°57'0 0.0
2016-Aug-27 11:30N 49°12' W 123°57'0 0.0
2016-Aug-27 10:30N 49°12' W 123°57'0 0.0
2016-Aug-27 09:30N 49°12' W 123°57'0 0.0
2016-Aug-27 07:15N 49°12' W 123°57'0 0.0
2016-Aug-27 06:18N 49°12' W 123°57'0 0.0
2016-Aug-27 04:27N 49°12' W 123°57'0 0.2
2016-Aug-27 03:34N 49°12' W 123°57'2019.6
2016-Aug-27 02:34N 49°18' W 123°29'9 9.3
2016-Aug-27 01:33N 49°23' W 123°16'1514.7
2016-Aug-27 00:33N 49°16' W 123°36'1412.8
2016-Aug-26 23:26N 49°12' W 123°57'1011.8
2016-Aug-26 22:34N 49°16' W 123°43'1918.6
2016-Aug-26 21:33N 49°23' W 123°16'4 3.5
2016-Aug-26 20:33N 49°20' W 123°20'2019.9
2016-Aug-26 19:33N 49°14' W 123°49'6 5.8
2016-Aug-26 18:33N 49°12' W 123°57'1919.1
2016-Aug-26 17:34N 49°18' W 123°30'10 9.8
2016-Aug-26 16:33N 49°23' W 123°16'1413.6
2016-Aug-26 15:33N 49°16' W 123°35'1515.2
2016-Aug-26 14:33N 49°12' W 123°57'0 0.0
2016-Aug-26 13:31N 49°12' W 123°57'0 0.0
2016-Aug-26 12:31N 49°12' W 123°57'0 0.0
2016-Aug-26 11:31N 49°12' W 123°57'0 0.0
2016-Aug-26 10:31N 49°12' W 123°57'0 0.0
2016-Aug-26 08:25N 49°12' W 123°57'0 0.0
2016-Aug-26 06:31N 49°12' W 123°57'0 0.0
2016-Aug-26 03:34N 49°12' W 123°57'1818.5
2016-Aug-26 02:33N 49°18' W 123°31'1010.4
2016-Aug-26 01:33N 49°23' W 123°16'1413.9
2016-Aug-26 00:34N 49°17' W 123°35'1515.0
2016-Aug-25 23:33N 49°12' W 123°57'1010.2
2016-Aug-25 22:34N 49°16' W 123°43'1919.0
2016-Aug-25 21:34N 49°23' W 123°16'4 3.9
2016-Aug-25 20:34N 49°20' W 123°20'2020.4
2016-Aug-25 19:33N 49°14' W 123°50'4 4.3
2016-Aug-25 18:34N 49°12' W 123°56'2019.9
2016-Aug-25 17:33N 49°19' W 123°27'8 8.2
2016-Aug-25 16:34N 49°23' W 123°16'1413.5
2016-Aug-25 15:34N 49°17' W 123°35'1515.3
2016-Aug-25 14:33N 49°12' W 123°57'0 0.0
2016-Aug-25 13:24N 49°12' W 123°57'0 0.0
2016-Aug-25 12:33N 49°12' W 123°57'0 0.0
2016-Aug-25 09:06N 49°12' W 123°57'0 0.0
2016-Aug-25 06:24N 49°12' W 123°57'0 0.0
2016-Aug-25 03:33N 49°12' W 123°57'1818.4
2016-Aug-25 02:34N 49°18' W 123°31'1110.8
2016-Aug-25 01:33N 49°23' W 123°16'1413.6
2016-Aug-25 00:33N 49°17' W 123°35'1515.4
2016-Aug-24 23:33N 49°12' W 123°57'1110.7
2016-Aug-24 22:34N 49°16' W 123°42'1818.4
2016-Aug-24 21:34N 49°23' W 123°16'4 3.5
2016-Aug-24 20:34N 49°20' W 123°20'2020.2
2016-Aug-24 19:33N 49°14' W 123°49'6 1.1
2016-Aug-24 14:24N 49°12' W 123°57'0 0.0
2016-Aug-24 13:30N 49°12' W 123°57'0 0.0
2016-Aug-24 12:30N 49°12' W 123°57'0 0.0
2016-Aug-24 11:27N 49°12' W 123°57'0 0.0
2016-Aug-24 10:24N 49°12' W 123°57'0 0.0
2016-Aug-24 09:33N 49°12' W 123°57'0 0.0
2016-Aug-24 08:30N 49°12' W 123°57'0 0.0
2016-Aug-24 07:27N 49°12' W 123°57'0 0.0
2016-Aug-24 06:33N 49°12' W 123°57'0 0.0
2016-Aug-24 04:33N 49°12' W 123°57'0 0.0
2016-Aug-24 03:34N 49°12' W 123°57'1918.8
2016-Aug-24 02:34N 49°18' W 123°30'10 9.9
2016-Aug-24 01:32N 49°23' W 123°16'1313.4
2016-Aug-24 00:34N 49°17' W 123°34'1615.0
2016-Aug-23 23:30N 49°12' W 123°57'1212.5
2016-Aug-23 22:33N 49°16' W 123°41'1716.2
2016-Aug-23 21:30N 49°23' W 123°16'3 3.5
2016-Aug-23 20:33N 49°20' W 123°20'2020.2
2016-Aug-23 19:33N 49°14' W 123°49'6 5.6
2016-Aug-23 18:31N 49°12' W 123°57'0 0.0
2016-Aug-23 17:18N 49°12' W 123°57'0 0.0
2016-Aug-23 15:30N 49°12' W 123°57'0 0.0
2016-Aug-23 14:31N 49°12' W 123°57'0 0.0
2016-Aug-23 13:31N 49°12' W 123°57'0 0.0
2016-Aug-23 12:30N 49°12' W 123°57'0 0.0
2016-Aug-23 11:30N 49°12' W 123°57'0 0.0
2016-Aug-23 10:28N 49°12' W 123°57'0 0.0
2016-Aug-23 09:33N 49°12' W 123°57'0 0.0
2016-Aug-23 08:30N 49°12' W 123°57'0 0.0
2016-Aug-23 07:27N 49°12' W 123°57'0 0.0
2016-Aug-23 06:33N 49°12' W 123°57'0 0.0
2016-Aug-23 05:24N 49°12' W 123°57'0 0.0
2016-Aug-23 04:30N 49°12' W 123°57'3 3.2
2016-Aug-23 03:33N 49°14' W 123°54'2020.3
2016-Aug-23 02:34N 49°19' W 123°24'6 6.1
2016-Aug-23 01:33N 49°23' W 123°16'1918.9
2016-Aug-23 00:33N 49°16' W 123°43'1010.0
2016-Aug-22 23:33N 49°12' W 123°57'1212.1
2016-Aug-22 22:33N 49°16' W 123°40'1717.0
2016-Aug-22 21:34N 49°23' W 123°16'4 4.5
2016-Aug-22 20:34N 49°19' W 123°21'2020.4
2016-Aug-22 19:34N 49°14' W 123°51'5 4.5
2016-Aug-22 18:33N 49°12' W 123°57'1919.1
2016-Aug-22 17:34N 49°18' W 123°30'10 9.8
2016-Aug-22 16:34N 49°23' W 123°16'1515.4
2016-Aug-22 15:33N 49°16' W 123°38'1412.1
2016-Aug-22 14:26N 49°12' W 123°57'0 0.0
2016-Aug-22 13:29N 49°12' W 123°57'0 0.0
2016-Aug-22 12:28N 49°12' W 123°57'0 0.0
2016-Aug-22 11:23N 49°12' W 123°57'0 0.0
2016-Aug-22 10:32N 49°12' W 123°57'0 0.0
2016-Aug-22 09:08N 49°12' W 123°57'0 0.0
2016-Aug-22 08:17N 49°12' W 123°57'810.8
2016-Aug-22 07:33N 49°15' W 123°46'1919.3
2016-Aug-22 06:34N 49°22' W 123°19'6 6.4
2016-Aug-22 05:34N 49°18' W 123°26'2121.1
2016-Aug-22 04:33N 49°12' W 123°57'3 2.7
2016-Aug-22 03:33N 49°13' W 123°54'2019.8
2016-Aug-22 02:33N 49°19' W 123°25'6 6.5
2016-Aug-22 01:33N 49°23' W 123°16'1616.0
2016-Aug-22 00:34N 49°16' W 123°38'1312.9
2016-Aug-21 23:33N 49°12' W 123°57'1212.3
2016-Aug-21 22:33N 49°17' W 123°40'1716.7
2016-Aug-21 21:34N 49°23' W 123°16'5 4.8
2016-Aug-21 20:33N 49°19' W 123°22'2120.7
2016-Aug-21 19:34N 49°14' W 123°52'4 1.2
2016-Aug-21 16:13N 49°12' W 123°57'0 0.0
2016-Aug-21 15:31N 49°12' W 123°57'0 0.0
2016-Aug-21 14:31N 49°12' W 123°57'0 0.0
2016-Aug-21 13:31N 49°12' W 123°57'0 0.0
2016-Aug-21 12:28N 49°12' W 123°57'0 0.0
2016-Aug-21 11:28N 49°12' W 123°57'0 0.0
2016-Aug-21 10:28N 49°12' W 123°57'0 0.0
2016-Aug-21 09:28N 49°12' W 123°57'0 0.0
2016-Aug-21 07:26N 49°12' W 123°57'0 0.0
2016-Aug-21 06:25N 49°12' W 123°57'0 0.0
2016-Aug-20 23:19N 49°12' W 123°57'1013.6
2016-Aug-20 22:34N 49°16' W 123°43'1918.5
2016-Aug-20 21:33N 49°23' W 123°16'4 4.3
2016-Aug-20 20:34N 49°20' W 123°21'2020.2
2016-Aug-20 19:34N 49°14' W 123°51'5 4.8
2016-Aug-20 18:34N 49°12' W 123°57'1919.1
2016-Aug-20 17:34N 49°18' W 123°30'10 9.9
2016-Aug-20 16:33N 49°23' W 123°16'1413.8
2016-Aug-20 15:34N 49°16' W 123°35'1515.2
2016-Aug-20 14:33N 49°12' W 123°57'0 0.0
2016-Aug-20 11:31N 49°12' W 123°57'0 0.0
2016-Aug-20 10:31N 49°12' W 123°57'0 0.0
2016-Aug-20 09:25N 49°12' W 123°57'0 0.0
2016-Aug-20 08:31N 49°12' W 123°57'0 0.0
2016-Aug-20 07:31N 49°12' W 123°57'0 0.0
2016-Aug-20 04:28N 49°12' W 123°57'4 4.5
2016-Aug-20 03:33N 49°14' W 123°52'  
Track history (hours):
 
Tides and Currents Weather Stations Pressure Air Temp Water Temp Dewpoint Dewpoint Depression Visibility Wind Speed Wind Dir Waves Ship Positions

Queen Of Cowichan

Last reported at 2016-Aug-30 03:32 UTC. Time now 2016-Aug-30 09:10 UTC.
Position N 49°12' W 123°57'.

Length 139 m; draft 5.5 m.

Type: Passenger vessel. MMSI: 316001251.

Date/timePositionNaut miles runAvg speedWind from/ knotsBaromVisibWave heightAir tempDewpointWater temp
2016-Aug-30 03:32N 49°12' W 123°57'1919.2
2016-Aug-30 02:33N 49°18' W 123°30'10 9.8
2016-Aug-30 01:33N 49°23' W 123°16'1515.3
2016-Aug-30 00:33N 49°16' W 123°37'1411.3
2016-Aug-29 23:20N 49°12' W 123°57'1113.4
2016-Aug-29 22:33N 49°16' W 123°43'1918.6
2016-Aug-29 21:33N 49°23' W 123°16'4 3.6
2016-Aug-29 20:34N 49°20' W 123°20'2020.1
2016-Aug-29 19:33N 49°14' W 123°50'6 5.5
2016-Aug-29 18:33N 49°12' W 123°57'1818.2
2016-Aug-29 17:34N 49°18' W 123°31'1110.8
2016-Aug-29 16:33N 49°23' W 123°16'1313.4
2016-Aug-29 15:34N 49°17' W 123°35'1615.2
2016-Aug-29 14:32N 49°12' W 123°57'0 0.0
2016-Aug-29 13:27N 49°12' W 123°57'0 0.0
2016-Aug-29 12:30N 49°12' W 123°57'0 0.0
2016-Aug-29 11:06N 49°12' W 123°57'0 0.0
2016-Aug-29 10:30N 49°12' W 123°57'0 0.0
2016-Aug-29 09:30N 49°12' W 123°57'0 0.0
2016-Aug-29 08:30N 49°12' W 123°57'5 5.2
2016-Aug-29 07:34N 49°14' W 123°51'2020.1
2016-Aug-29 06:34N 49°20' W 123°21'0 0.2
2016-Aug-29 05:33N 49°20' W 123°21'2120.6
2016-Aug-29 04:33N 49°14' W 123°51'4 4.1
2016-Aug-29 03:34N 49°12' W 123°57'2019.9
2016-Aug-29 02:33N 49°18' W 123°28'9 8.7
2016-Aug-29 01:34N 49°23' W 123°16'1615.9
2016-Aug-29 00:33N 49°16' W 123°39'1312.9
2016-Aug-28 23:33N 49°12' W 123°57'1313.0
2016-Aug-28 22:34N 49°17' W 123°40'1616.1
2016-Aug-28 21:34N 49°23' W 123°16'5 5.1
2016-Aug-28 20:34N 49°19' W 123°22'2120.5
2016-Aug-28 19:33N 49°14' W 123°52'4 3.6
2016-Aug-28 18:28N 49°12' W 123°57'0 0.0
2016-Aug-28 15:31N 49°12' W 123°57'0 0.0
2016-Aug-28 13:31N 49°12' W 123°57'0 0.0
2016-Aug-28 12:19N 49°12' W 123°57'0 0.0
2016-Aug-28 11:31N 49°12' W 123°57'0 0.0
2016-Aug-28 10:32N 49°12' W 123°57'0 0.0
2016-Aug-28 09:08N 49°12' W 123°57'0 0.0
2016-Aug-28 06:25N 49°12' W 123°57'0 0.0
2016-Aug-28 02:28N 49°12' W 123°57'0 0.0
2016-Aug-28 00:31N 49°12' W 123°57'0 0.0
2016-Aug-27 23:17N 49°12' W 123°57'1317.5
2016-Aug-27 22:34N 49°19' W 123°41'1716.8
2016-Aug-27 21:34N 49°23' W 123°16'4 3.8
2016-Aug-27 20:34N 49°20' W 123°20'2020.4
2016-Aug-27 19:34N 49°14' W 123°50'5 5.2
2016-Aug-27 18:34N 49°12' W 123°57'1919.5
2016-Aug-27 17:34N 49°18' W 123°29'9 9.4
2016-Aug-27 16:33N 49°23' W 123°16'1514.6
2016-Aug-27 15:34N 49°16' W 123°36'1413.7
2016-Aug-27 14:31N 49°12' W 123°57'0 0.0
2016-Aug-27 13:18N 49°12' W 123°57'0 0.0
2016-Aug-27 12:33N 49°12' W 123°57'0 0.0
2016-Aug-27 11:30N 49°12' W 123°57'0 0.0
2016-Aug-27 10:30N 49°12' W 123°57'0 0.0
2016-Aug-27 09:30N 49°12' W 123°57'0 0.0
2016-Aug-27 07:15N 49°12' W 123°57'0 0.0
2016-Aug-27 06:18N 49°12' W 123°57'0 0.0
2016-Aug-27 04:27N 49°12' W 123°57'0 0.2
2016-Aug-27 03:34N 49°12' W 123°57'2019.6
2016-Aug-27 02:34N 49°18' W 123°29'9 9.3
2016-Aug-27 01:33N 49°23' W 123°16'1514.7
2016-Aug-27 00:33N 49°16' W 123°36'1412.8
2016-Aug-26 23:26N 49°12' W 123°57'1011.8
2016-Aug-26 22:34N 49°16' W 123°43'1918.6
2016-Aug-26 21:33N 49°23' W 123°16'4 3.5
2016-Aug-26 20:33N 49°20' W 123°20'2019.9
2016-Aug-26 19:33N 49°14' W 123°49'6 5.8
2016-Aug-26 18:33N 49°12' W 123°57'1919.1
2016-Aug-26 17:34N 49°18' W 123°30'10 9.8
2016-Aug-26 16:33N 49°23' W 123°16'1413.6
2016-Aug-26 15:33N 49°16' W 123°35'1515.2
2016-Aug-26 14:33N 49°12' W 123°57'0 0.0
2016-Aug-26 13:31N 49°12' W 123°57'0 0.0
2016-Aug-26 12:31N 49°12' W 123°57'0 0.0
2016-Aug-26 11:31N 49°12' W 123°57'0 0.0
2016-Aug-26 10:31N 49°12' W 123°57'0 0.0
2016-Aug-26 08:25N 49°12' W 123°57'0 0.0
2016-Aug-26 06:31N 49°12' W 123°57'0 0.0
2016-Aug-26 03:34N 49°12' W 123°57'1818.5
2016-Aug-26 02:33N 49°18' W 123°31'1010.4
2016-Aug-26 01:33N 49°23' W 123°16'1413.9
2016-Aug-26 00:34N 49°17' W 123°35'1515.0
2016-Aug-25 23:33N 49°12' W 123°57'1010.2
2016-Aug-25 22:34N 49°16' W 123°43'1919.0
2016-Aug-25 21:34N 49°23' W 123°16'4 3.9
2016-Aug-25 20:34N 49°20' W 123°20'2020.4
2016-Aug-25 19:33N 49°14' W 123°50'4 4.3
2016-Aug-25 18:34N 49°12' W 123°56'2019.9
2016-Aug-25 17:33N 49°19' W 123°27'8 8.2
2016-Aug-25 16:34N 49°23' W 123°16'1413.5
2016-Aug-25 15:34N 49°17' W 123°35'1515.3
2016-Aug-25 14:33N 49°12' W 123°57'0 0.0
2016-Aug-25 13:24N 49°12' W 123°57'0 0.0
2016-Aug-25 12:33N 49°12' W 123°57'0 0.0
2016-Aug-25 09:06N 49°12' W 123°57'0 0.0
2016-Aug-25 06:24N 49°12' W 123°57'0 0.0
2016-Aug-25 03:33N 49°12' W 123°57'1818.4
2016-Aug-25 02:34N 49°18' W 123°31'1110.8
2016-Aug-25 01:33N 49°23' W 123°16'1413.6
2016-Aug-25 00:33N 49°17' W 123°35'1515.4
2016-Aug-24 23:33N 49°12' W 123°57'1110.7
2016-Aug-24 22:34N 49°16' W 123°42'1818.4
2016-Aug-24 21:34N 49°23' W 123°16'4 3.5
2016-Aug-24 20:34N 49°20' W 123°20'2020.2
2016-Aug-24 19:33N 49°14' W 123°49'6 1.1
2016-Aug-24 14:24N 49°12' W 123°57'0 0.0
2016-Aug-24 13:30N 49°12' W 123°57'0 0.0
2016-Aug-24 12:30N 49°12' W 123°57'0 0.0
2016-Aug-24 11:27N 49°12' W 123°57'0 0.0
2016-Aug-24 10:24N 49°12' W 123°57'0 0.0
2016-Aug-24 09:33N 49°12' W 123°57'0 0.0
2016-Aug-24 08:30N 49°12' W 123°57'0 0.0
2016-Aug-24 07:27N 49°12' W 123°57'0 0.0
2016-Aug-24 06:33N 49°12' W 123°57'0 0.0
2016-Aug-24 04:33N 49°12' W 123°57'0 0.0
2016-Aug-24 03:34N 49°12' W 123°57'1918.8
2016-Aug-24 02:34N 49°18' W 123°30'10 9.9
2016-Aug-24 01:32N 49°23' W 123°16'1313.4
2016-Aug-24 00:34N 49°17' W 123°34'1615.0
2016-Aug-23 23:30N 49°12' W 123°57'1212.5
2016-Aug-23 22:33N 49°16' W 123°41'1716.2
2016-Aug-23 21:30N 49°23' W 123°16'3 3.5
2016-Aug-23 20:33N 49°20' W 123°20'2020.2
2016-Aug-23 19:33N 49°14' W 123°49'6 5.6
2016-Aug-23 18:31N 49°12' W 123°57'0 0.0
2016-Aug-23 17:18N 49°12' W 123°57'0 0.0
2016-Aug-23 15:30N 49°12' W 123°57'0 0.0
2016-Aug-23 14:31N 49°12' W 123°57'0 0.0
2016-Aug-23 13:31N 49°12' W 123°57'0 0.0
2016-Aug-23 12:30N 49°12' W 123°57'0 0.0
2016-Aug-23 11:30N 49°12' W 123°57'0 0.0
2016-Aug-23 10:28N 49°12' W 123°57'0 0.0
2016-Aug-23 09:33N 49°12' W 123°57'0 0.0
2016-Aug-23 08:30N 49°12' W 123°57'0 0.0
2016-Aug-23 07:27N 49°12' W 123°57'0 0.0
2016-Aug-23 06:33N 49°12' W 123°57'0 0.0
2016-Aug-23 05:24N 49°12' W 123°57'0 0.0
2016-Aug-23 04:30N 49°12' W 123°57'3 3.2
2016-Aug-23 03:33N 49°14' W 123°54'2020.3
2016-Aug-23 02:34N 49°19' W 123°24'6 6.1
2016-Aug-23 01:33N 49°23' W 123°16'1918.9
2016-Aug-23 00:33N 49°16' W 123°43'1010.0
2016-Aug-22 23:33N 49°12' W 123°57'1212.1
2016-Aug-22 22:33N 49°16' W 123°40'1717.0
2016-Aug-22 21:34N 49°23' W 123°16'4 4.5
2016-Aug-22 20:34N 49°19' W 123°21'2020.4
2016-Aug-22 19:34N 49°14' W 123°51'5 4.5
2016-Aug-22 18:33N 49°12' W 123°57'1919.1
2016-Aug-22 17:34N 49°18' W 123°30'10 9.8
2016-Aug-22 16:34N 49°23' W 123°16'1515.4
2016-Aug-22 15:33N 49°16' W 123°38'1412.1
2016-Aug-22 14:26N 49°12' W 123°57'0 0.0
2016-Aug-22 13:29N 49°12' W 123°57'0 0.0
2016-Aug-22 12:28N 49°12' W 123°57'0 0.0
2016-Aug-22 11:23N 49°12' W 123°57'0 0.0
2016-Aug-22 10:32N 49°12' W 123°57'0 0.0
2016-Aug-22 09:08N 49°12' W 123°57'0 0.0
2016-Aug-22 08:17N 49°12' W 123°57'810.8
2016-Aug-22 07:33N 49°15' W 123°46'1919.3
2016-Aug-22 06:34N 49°22' W 123°19'6 6.4
2016-Aug-22 05:34N 49°18' W 123°26'2121.1
2016-Aug-22 04:33N 49°12' W 123°57'3 2.7
2016-Aug-22 03:33N 49°13' W 123°54'2019.8
2016-Aug-22 02:33N 49°19' W 123°25'6 6.5
2016-Aug-22 01:33N 49°23' W 123°16'1616.0
2016-Aug-22 00:34N 49°16' W 123°38'1312.9
2016-Aug-21 23:33N 49°12' W 123°57'1212.3
2016-Aug-21 22:33N 49°17' W 123°40'1716.7
2016-Aug-21 21:34N 49°23' W 123°16'5 4.8
2016-Aug-21 20:33N 49°19' W 123°22'2120.7
2016-Aug-21 19:34N 49°14' W 123°52'4 1.2
2016-Aug-21 16:13N 49°12' W 123°57'0 0.0
2016-Aug-21 15:31N 49°12' W 123°57'0 0.0
2016-Aug-21 14:31N 49°12' W 123°57'0 0.0
2016-Aug-21 13:31N 49°12' W 123°57'0 0.0
2016-Aug-21 12:28N 49°12' W 123°57'0 0.0
2016-Aug-21 11:28N 49°12' W 123°57'0 0.0
2016-Aug-21 10:28N 49°12' W 123°57'0 0.0
2016-Aug-21 09:28N 49°12' W 123°57'0 0.0
2016-Aug-21 07:26N 49°12' W 123°57'0 0.0
2016-Aug-21 06:25N 49°12' W 123°57'0 0.0
2016-Aug-20 23:19N 49°12' W 123°57'1013.6
2016-Aug-20 22:34N 49°16' W 123°43'1918.5
2016-Aug-20 21:33N 49°23' W 123°16'4 4.3
2016-Aug-20 20:34N 49°20' W 123°21'2020.2
2016-Aug-20 19:34N 49°14' W 123°51'5 4.8
2016-Aug-20 18:34N 49°12' W 123°57'1919.1
2016-Aug-20 17:34N 49°18' W 123°30'10 9.9
2016-Aug-20 16:33N 49°23' W 123°16'1413.8
2016-Aug-20 15:34N 49°16' W 123°35'1515.2
2016-Aug-20 14:33N 49°12' W 123°57'0 0.0
2016-Aug-20 11:31N 49°12' W 123°57'0 0.0
2016-Aug-20 10:31N 49°12' W 123°57'0 0.0
2016-Aug-20 09:25N 49°12' W 123°57'0 0.0
2016-Aug-20 08:31N 49°12' W 123°57'0 0.0
2016-Aug-20 07:31N 49°12' W 123°57'0 0.0
2016-Aug-20 04:28N 49°12' W 123°57'4 4.5
2016-Aug-20 03:33N 49°14' W 123°52'  

Dump ship's entire track history